sensor_id;sensor_type;location;lat;lon;timestamp;P1;durP1;ratioP1;P2;durP2;ratioP2
17091;SDS011;8661;45.700;4.880;2023-04-03T00:01:04;3.23;;;2.00;;
17091;SDS011;8661;45.700;4.880;2023-04-03T00:03:32;3.57;;;1.53;;
17091;SDS011;8661;45.700;4.880;2023-04-03T00:05:59;1.70;;;1.60;;
17091;SDS011;8661;45.700;4.880;2023-04-03T00:08:26;3.43;;;1.90;;
17091;SDS011;8661;45.700;4.880;2023-04-03T00:10:57;2.53;;;1.90;;
17091;SDS011;8661;45.700;4.880;2023-04-03T00:13:24;2.33;;;1.53;;
17091;SDS011;8661;45.700;4.880;2023-04-03T00:15:51;3.53;;;1.97;;
17091;SDS011;8661;45.700;4.880;2023-04-03T00:18:18;4.00;;;1.83;;
17091;SDS011;8661;45.700;4.880;2023-04-03T00:20:46;3.27;;;1.80;;
17091;SDS011;8661;45.700;4.880;2023-04-03T00:23:13;4.30;;;1.93;;
17091;SDS011;8661;45.700;4.880;2023-04-03T00:25:41;4.80;;;1.73;;
17091;SDS011;8661;45.700;4.880;2023-04-03T00:28:10;2.00;;;1.70;;
17091;SDS011;8661;45.700;4.880;2023-04-03T00:30:39;2.57;;;1.60;;
17091;SDS011;8661;45.700;4.880;2023-04-03T00:33:06;2.60;;;1.40;;
17091;SDS011;8661;45.700;4.880;2023-04-03T00:35:34;3.53;;;1.50;;
17091;SDS011;8661;45.700;4.880;2023-04-03T00:38:01;2.73;;;1.90;;
17091;SDS011;8661;45.700;4.880;2023-04-03T00:40:28;2.17;;;1.50;;
17091;SDS011;8661;45.700;4.880;2023-04-03T00:43:00;2.00;;;1.50;;
17091;SDS011;8661;45.700;4.880;2023-04-03T00:45:32;2.33;;;1.37;;
17091;SDS011;8661;45.700;4.880;2023-04-03T00:48:01;1.93;;;1.47;;
17091;SDS011;8661;45.700;4.880;2023-04-03T00:50:32;3.17;;;1.70;;
17091;SDS011;8661;45.700;4.880;2023-04-03T00:53:01;4.10;;;2.00;;
17091;SDS011;8661;45.700;4.880;2023-04-03T00:55:30;2.03;;;1.43;;
17091;SDS011;8661;45.700;4.880;2023-04-03T00:57:58;3.93;;;1.50;;
17091;SDS011;8661;45.700;4.880;2023-04-03T01:00:33;2.60;;;1.50;;
17091;SDS011;8661;45.700;4.880;2023-04-03T01:03:02;1.50;;;1.40;;
17091;SDS011;8661;45.700;4.880;2023-04-03T01:05:29;2.40;;;1.20;;
17091;SDS011;8661;45.700;4.880;2023-04-03T01:07:56;1.57;;;1.30;;
17091;SDS011;8661;45.700;4.880;2023-04-03T01:10:24;1.40;;;1.30;;
17091;SDS011;8661;45.700;4.880;2023-04-03T01:12:51;3.43;;;1.50;;
17091;SDS011;8661;45.700;4.880;2023-04-03T01:15:19;1.87;;;1.33;;
17091;SDS011;8661;45.700;4.880;2023-04-03T01:17:49;3.73;;;1.30;;
17091;SDS011;8661;45.700;4.880;2023-04-03T01:23:23;1.30;;;1.20;;
17091;SDS011;8661;45.700;4.880;2023-04-03T01:25:58;1.40;;;1.30;;
17091;SDS011;8661;45.700;4.880;2023-04-03T01:28:26;1.63;;;1.30;;
17091;SDS011;8661;45.700;4.880;2023-04-03T01:30:56;3.57;;;1.53;;
17091;SDS011;8661;45.700;4.880;2023-04-03T01:33:30;1.83;;;0.90;;
17091;SDS011;8661;45.700;4.880;2023-04-03T01:35:57;2.10;;;1.10;;
17091;SDS011;8661;45.700;4.880;2023-04-03T01:38:24;2.10;;;1.40;;
17091;SDS011;8661;45.700;4.880;2023-04-03T01:40:53;1.60;;;1.20;;
17091;SDS011;8661;45.700;4.880;2023-04-03T01:43:20;1.40;;;1.30;;
17091;SDS011;8661;45.700;4.880;2023-04-03T01:45:47;1.13;;;1.03;;
17091;SDS011;8661;45.700;4.880;2023-04-03T01:48:15;1.50;;;1.30;;
17091;SDS011;8661;45.700;4.880;2023-04-03T01:50:44;1.17;;;1.07;;
17091;SDS011;8661;45.700;4.880;2023-04-03T01:53:11;3.57;;;1.40;;
17091;SDS011;8661;45.700;4.880;2023-04-03T01:55:38;2.27;;;1.23;;
17091;SDS011;8661;45.700;4.880;2023-04-03T01:58:05;1.87;;;1.27;;
17091;SDS011;8661;45.700;4.880;2023-04-03T02:00:32;3.17;;;1.33;;
17091;SDS011;8661;45.700;4.880;2023-04-03T02:02:59;2.47;;;1.23;;
17091;SDS011;8661;45.700;4.880;2023-04-03T02:05:26;2.10;;;1.30;;
17091;SDS011;8661;45.700;4.880;2023-04-03T02:07:54;1.10;;;1.10;;
17091;SDS011;8661;45.700;4.880;2023-04-03T02:10:21;1.23;;;1.10;;
17091;SDS011;8661;45.700;4.880;2023-04-03T02:12:48;1.53;;;1.00;;
17091;SDS011;8661;45.700;4.880;2023-04-03T02:15:15;2.40;;;1.37;;
17091;SDS011;8661;45.700;4.880;2023-04-03T02:17:42;1.67;;;1.20;;
17091;SDS011;8661;45.700;4.880;2023-04-03T02:20:09;1.37;;;1.17;;
17091;SDS011;8661;45.700;4.880;2023-04-03T02:22:37;1.67;;;1.13;;
17091;SDS011;8661;45.700;4.880;2023-04-03T02:25:05;1.57;;;1.20;;
17091;SDS011;8661;45.700;4.880;2023-04-03T02:27:32;1.33;;;1.23;;
17091;SDS011;8661;45.700;4.880;2023-04-03T02:30:00;1.17;;;1.07;;
17091;SDS011;8661;45.700;4.880;2023-04-03T02:32:27;1.47;;;1.00;;
17091;SDS011;8661;45.700;4.880;2023-04-03T02:34:54;1.20;;;1.10;;
17091;SDS011;8661;45.700;4.880;2023-04-03T02:37:21;1.10;;;1.00;;
17091;SDS011;8661;45.700;4.880;2023-04-03T02:39:48;1.87;;;1.00;;
17091;SDS011;8661;45.700;4.880;2023-04-03T02:42:16;1.13;;;1.03;;
17091;SDS011;8661;45.700;4.880;2023-04-03T02:44:43;1.20;;;1.10;;
17091;SDS011;8661;45.700;4.880;2023-04-03T02:47:10;1.70;;;1.10;;
17091;SDS011;8661;45.700;4.880;2023-04-03T02:49:37;1.10;;;0.97;;
17091;SDS011;8661;45.700;4.880;2023-04-03T02:52:04;1.20;;;1.10;;
17091;SDS011;8661;45.700;4.880;2023-04-03T02:54:31;1.00;;;0.90;;
17091;SDS011;8661;45.700;4.880;2023-04-03T02:56:58;1.20;;;1.10;;
17091;SDS011;8661;45.700;4.880;2023-04-03T02:59:26;1.37;;;1.17;;
17091;SDS011;8661;45.700;4.880;2023-04-03T03:01:53;2.67;;;1.40;;
17091;SDS011;8661;45.700;4.880;2023-04-03T03:04:21;1.60;;;1.20;;
17091;SDS011;8661;45.700;4.880;2023-04-03T03:06:50;1.33;;;1.23;;
17091;SDS011;8661;45.700;4.880;2023-04-03T03:09:20;2.10;;;1.60;;
17091;SDS011;8661;45.700;4.880;2023-04-03T03:11:47;1.80;;;1.50;;
17091;SDS011;8661;45.700;4.880;2023-04-03T03:14:17;1.70;;;1.60;;
17091;SDS011;8661;45.700;4.880;2023-04-03T03:16:45;1.70;;;1.40;;
17091;SDS011;8661;45.700;4.880;2023-04-03T03:19:12;1.60;;;1.50;;
17091;SDS011;8661;45.700;4.880;2023-04-03T03:21:39;2.20;;;1.80;;
17091;SDS011;8661;45.700;4.880;2023-04-03T03:24:06;1.80;;;1.67;;
17091;SDS011;8661;45.700;4.880;2023-04-03T03:26:34;3.33;;;1.70;;
17091;SDS011;8661;45.700;4.880;2023-04-03T03:29:01;2.87;;;1.97;;
17091;SDS011;8661;45.700;4.880;2023-04-03T03:31:28;1.97;;;1.67;;
17091;SDS011;8661;45.700;4.880;2023-04-03T03:33:56;2.80;;;1.70;;
17091;SDS011;8661;45.700;4.880;2023-04-03T03:36:23;3.77;;;2.40;;
17091;SDS011;8661;45.700;4.880;2023-04-03T03:38:50;2.57;;;2.23;;
17091;SDS011;8661;45.700;4.880;2023-04-03T03:41:17;2.70;;;2.30;;
17091;SDS011;8661;45.700;4.880;2023-04-03T03:43:46;2.70;;;2.27;;
17091;SDS011;8661;45.700;4.880;2023-04-03T03:46:13;2.37;;;2.00;;
17091;SDS011;8661;45.700;4.880;2023-04-03T03:48:40;4.30;;;2.37;;
17091;SDS011;8661;45.700;4.880;2023-04-03T03:51:08;3.70;;;2.40;;
17091;SDS011;8661;45.700;4.880;2023-04-03T03:53:35;2.43;;;2.20;;
17091;SDS011;8661;45.700;4.880;2023-04-03T03:56:08;2.77;;;2.33;;
17091;SDS011;8661;45.700;4.880;2023-04-03T03:58:41;2.90;;;2.60;;
17091;SDS011;8661;45.700;4.880;2023-04-03T04:01:08;4.87;;;2.70;;
17091;SDS011;8661;45.700;4.880;2023-04-03T04:03:34;3.00;;;2.53;;
17091;SDS011;8661;45.700;4.880;2023-04-03T04:06:02;3.07;;;2.60;;
17091;SDS011;8661;45.700;4.880;2023-04-03T04:08:30;2.90;;;2.53;;
17091;SDS011;8661;45.700;4.880;2023-04-03T04:10:57;2.63;;;2.27;;
17091;SDS011;8661;45.700;4.880;2023-04-03T04:13:24;3.37;;;3.00;;
17091;SDS011;8661;45.700;4.880;2023-04-03T04:15:51;3.13;;;2.70;;
17091;SDS011;8661;45.700;4.880;2023-04-03T04:18:21;5.50;;;3.40;;
17091;SDS011;8661;45.700;4.880;2023-04-03T04:20:49;6.27;;;3.90;;
17091;SDS011;8661;45.700;4.880;2023-04-03T04:23:18;4.80;;;2.90;;
17091;SDS011;8661;45.700;4.880;2023-04-03T04:25:48;3.47;;;3.13;;
17091;SDS011;8661;45.700;4.880;2023-04-03T04:28:18;4.80;;;3.53;;
17091;SDS011;8661;45.700;4.880;2023-04-03T04:30:45;4.03;;;3.10;;
17091;SDS011;8661;45.700;4.880;2023-04-03T04:33:12;4.20;;;3.30;;
17091;SDS011;8661;45.700;4.880;2023-04-03T04:35:41;3.90;;;3.00;;
17091;SDS011;8661;45.700;4.880;2023-04-03T04:38:08;4.57;;;3.17;;
17091;SDS011;8661;45.700;4.880;2023-04-03T04:40:35;6.63;;;3.70;;
17091;SDS011;8661;45.700;4.880;2023-04-03T04:43:04;5.97;;;3.13;;
17091;SDS011;8661;45.700;4.880;2023-04-03T04:45:31;5.87;;;4.07;;
17091;SDS011;8661;45.700;4.880;2023-04-03T04:47:58;5.87;;;3.70;;
17091;SDS011;8661;45.700;4.880;2023-04-03T04:50:25;5.00;;;3.90;;
17091;SDS011;8661;45.700;4.880;2023-04-03T04:52:52;6.23;;;4.60;;
17091;SDS011;8661;45.700;4.880;2023-04-03T04:55:19;4.60;;;3.70;;
17091;SDS011;8661;45.700;4.880;2023-04-03T04:57:46;4.60;;;3.60;;
17091;SDS011;8661;45.700;4.880;2023-04-03T05:00:15;5.90;;;4.17;;
17091;SDS011;8661;45.700;4.880;2023-04-03T05:02:44;4.13;;;3.63;;
17091;SDS011;8661;45.700;4.880;2023-04-03T05:05:11;4.90;;;4.13;;
17091;SDS011;8661;45.700;4.880;2023-04-03T05:07:38;5.87;;;4.13;;
17091;SDS011;8661;45.700;4.880;2023-04-03T05:10:06;5.13;;;4.43;;
17091;SDS011;8661;45.700;4.880;2023-04-03T05:12:35;7.60;;;5.00;;
17091;SDS011;8661;45.700;4.880;2023-04-03T05:15:02;7.20;;;4.60;;
17091;SDS011;8661;45.700;4.880;2023-04-03T05:17:31;6.30;;;4.73;;
17091;SDS011;8661;45.700;4.880;2023-04-03T05:19:58;7.10;;;4.97;;
17091;SDS011;8661;45.700;4.880;2023-04-03T05:22:25;6.20;;;4.80;;
17091;SDS011;8661;45.700;4.880;2023-04-03T05:27:30;6.73;;;4.87;;
17091;SDS011;8661;45.700;4.880;2023-04-03T05:29:57;6.73;;;5.10;;
17091;SDS011;8661;45.700;4.880;2023-04-03T05:32:25;5.33;;;4.63;;
17091;SDS011;8661;45.700;4.880;2023-04-03T05:34:54;7.77;;;4.90;;
17091;SDS011;8661;45.700;4.880;2023-04-03T05:37:20;7.07;;;5.53;;
17091;SDS011;8661;45.700;4.880;2023-04-03T05:39:47;7.47;;;5.27;;
17091;SDS011;8661;45.700;4.880;2023-04-03T05:42:15;8.13;;;5.33;;
17091;SDS011;8661;45.700;4.880;2023-04-03T05:44:43;8.07;;;5.40;;
17091;SDS011;8661;45.700;4.880;2023-04-03T05:47:12;8.13;;;5.63;;
17091;SDS011;8661;45.700;4.880;2023-04-03T05:49:39;7.70;;;5.13;;
17091;SDS011;8661;45.700;4.880;2023-04-03T05:52:08;8.23;;;6.10;;
17091;SDS011;8661;45.700;4.880;2023-04-03T05:54:44;8.40;;;6.07;;
17091;SDS011;8661;45.700;4.880;2023-04-03T05:57:13;9.30;;;6.70;;
17091;SDS011;8661;45.700;4.880;2023-04-03T05:59:41;11.10;;;8.65;;
17091;SDS011;8661;45.700;4.880;2023-04-03T06:02:08;11.20;;;8.87;;
17091;SDS011;8661;45.700;4.880;2023-04-03T06:04:38;13.70;;;9.00;;
17091;SDS011;8661;45.700;4.880;2023-04-03T06:07:05;15.53;;;9.90;;
17091;SDS011;8661;45.700;4.880;2023-04-03T06:09:34;13.97;;;9.20;;
17091;SDS011;8661;45.700;4.880;2023-04-03T06:12:01;14.90;;;10.20;;
17091;SDS011;8661;45.700;4.880;2023-04-03T06:14:28;14.07;;;9.60;;
17091;SDS011;8661;45.700;4.880;2023-04-03T06:16:55;13.60;;;9.93;;
17091;SDS011;8661;45.700;4.880;2023-04-03T06:19:22;14.27;;;9.90;;
17091;SDS011;8661;45.700;4.880;2023-04-03T06:21:49;22.17;;;9.73;;
17091;SDS011;8661;45.700;4.880;2023-04-03T06:24:16;12.60;;;8.67;;
17091;SDS011;8661;45.700;4.880;2023-04-03T06:26:46;11.67;;;7.80;;
17091;SDS011;8661;45.700;4.880;2023-04-03T06:29:13;13.60;;;9.40;;
17091;SDS011;8661;45.700;4.880;2023-04-03T06:31:40;12.17;;;8.67;;
17091;SDS011;8661;45.700;4.880;2023-04-03T06:34:07;12.17;;;8.37;;
17091;SDS011;8661;45.700;4.880;2023-04-03T06:36:35;10.63;;;7.83;;
17091;SDS011;8661;45.700;4.880;2023-04-03T06:39:03;11.30;;;8.33;;
17091;SDS011;8661;45.700;4.880;2023-04-03T06:41:32;10.93;;;7.77;;
17091;SDS011;8661;45.700;4.880;2023-04-03T06:44:00;11.87;;;7.47;;
17091;SDS011;8661;45.700;4.880;2023-04-03T06:46:28;13.33;;;8.13;;
17091;SDS011;8661;45.700;4.880;2023-04-03T06:48:55;10.67;;;8.00;;
17091;SDS011;8661;45.700;4.880;2023-04-03T06:51:22;12.80;;;9.53;;
17091;SDS011;8661;45.700;4.880;2023-04-03T06:53:52;13.63;;;8.43;;
17091;SDS011;8661;45.700;4.880;2023-04-03T06:56:20;11.73;;;7.80;;
17091;SDS011;8661;45.700;4.880;2023-04-03T06:58:47;11.20;;;8.20;;
17091;SDS011;8661;45.700;4.880;2023-04-03T07:01:17;10.37;;;7.60;;
17091;SDS011;8661;45.700;4.880;2023-04-03T07:03:45;9.27;;;7.27;;
17091;SDS011;8661;45.700;4.880;2023-04-03T07:06:14;10.23;;;7.23;;
17091;SDS011;8661;45.700;4.880;2023-04-03T07:08:42;12.30;;;8.03;;
17091;SDS011;8661;45.700;4.880;2023-04-03T07:11:09;10.53;;;7.57;;
17091;SDS011;8661;45.700;4.880;2023-04-03T07:13:36;13.07;;;7.87;;
17091;SDS011;8661;45.700;4.880;2023-04-03T07:16:04;13.80;;;8.60;;
17091;SDS011;8661;45.700;4.880;2023-04-03T07:18:33;11.20;;;8.00;;
17091;SDS011;8661;45.700;4.880;2023-04-03T07:21:01;11.33;;;8.03;;
17091;SDS011;8661;45.700;4.880;2023-04-03T07:23:28;10.33;;;6.83;;
17091;SDS011;8661;45.700;4.880;2023-04-03T07:25:55;10.73;;;7.50;;
17091;SDS011;8661;45.700;4.880;2023-04-03T07:28:22;10.97;;;8.00;;
17091;SDS011;8661;45.700;4.880;2023-04-03T07:30:50;11.00;;;7.77;;
17091;SDS011;8661;45.700;4.880;2023-04-03T07:33:19;12.97;;;8.03;;
17091;SDS011;8661;45.700;4.880;2023-04-03T07:35:50;12.53;;;8.53;;
17091;SDS011;8661;45.700;4.880;2023-04-03T07:38:17;8.97;;;6.70;;
17091;SDS011;8661;45.700;4.880;2023-04-03T07:40:45;8.63;;;6.37;;
17091;SDS011;8661;45.700;4.880;2023-04-03T07:43:13;9.73;;;7.27;;
17091;SDS011;8661;45.700;4.880;2023-04-03T07:45:40;11.27;;;7.30;;
17091;SDS011;8661;45.700;4.880;2023-04-03T07:48:10;12.37;;;8.00;;
17091;SDS011;8661;45.700;4.880;2023-04-03T07:50:39;11.23;;;7.97;;
17091;SDS011;8661;45.700;4.880;2023-04-03T07:53:08;15.27;;;8.77;;
17091;SDS011;8661;45.700;4.880;2023-04-03T07:55:35;13.53;;;8.93;;
17091;SDS011;8661;45.700;4.880;2023-04-03T07:58:07;15.47;;;8.57;;
17091;SDS011;8661;45.700;4.880;2023-04-03T08:00:35;14.03;;;8.77;;
17091;SDS011;8661;45.700;4.880;2023-04-03T08:03:03;13.10;;;8.33;;
17091;SDS011;8661;45.700;4.880;2023-04-03T08:05:30;13.03;;;8.80;;
17091;SDS011;8661;45.700;4.880;2023-04-03T08:07:57;15.07;;;8.70;;
17091;SDS011;8661;45.700;4.880;2023-04-03T08:10:25;14.70;;;8.30;;
17091;SDS011;8661;45.700;4.880;2023-04-03T08:12:52;11.73;;;8.43;;
17091;SDS011;8661;45.700;4.880;2023-04-03T08:15:19;12.97;;;8.10;;
17091;SDS011;8661;45.700;4.880;2023-04-03T08:17:46;11.50;;;7.77;;
17091;SDS011;8661;45.700;4.880;2023-04-03T08:20:13;15.23;;;8.77;;
17091;SDS011;8661;45.700;4.880;2023-04-03T08:22:40;11.47;;;8.70;;
17091;SDS011;8661;45.700;4.880;2023-04-03T08:25:08;11.60;;;8.00;;
17091;SDS011;8661;45.700;4.880;2023-04-03T08:27:36;11.57;;;7.93;;
17091;SDS011;8661;45.700;4.880;2023-04-03T08:30:03;10.20;;;7.07;;
17091;SDS011;8661;45.700;4.880;2023-04-03T08:32:32;9.33;;;6.70;;
17091;SDS011;8661;45.700;4.880;2023-04-03T08:34:59;11.80;;;7.57;;
17091;SDS011;8661;45.700;4.880;2023-04-03T08:37:26;9.63;;;6.83;;
17091;SDS011;8661;45.700;4.880;2023-04-03T08:39:53;11.10;;;7.50;;
17091;SDS011;8661;45.700;4.880;2023-04-03T08:42:24;9.10;;;7.33;;
17091;SDS011;8661;45.700;4.880;2023-04-03T08:45:05;10.10;;;7.60;;
17091;SDS011;8661;45.700;4.880;2023-04-03T08:47:38;9.43;;;6.70;;
17091;SDS011;8661;45.700;4.880;2023-04-03T08:50:07;8.40;;;6.83;;
17091;SDS011;8661;45.700;4.880;2023-04-03T08:52:39;8.30;;;6.30;;
17091;SDS011;8661;45.700;4.880;2023-04-03T08:55:12;11.33;;;6.37;;
17091;SDS011;8661;45.700;4.880;2023-04-03T08:57:46;10.17;;;6.63;;
17091;SDS011;8661;45.700;4.880;2023-04-03T09:00:18;11.27;;;6.23;;
17091;SDS011;8661;45.700;4.880;2023-04-03T09:02:47;10.77;;;7.23;;
17091;SDS011;8661;45.700;4.880;2023-04-03T09:05:16;10.83;;;6.73;;
17091;SDS011;8661;45.700;4.880;2023-04-03T09:07:45;10.40;;;6.83;;
17091;SDS011;8661;45.700;4.880;2023-04-03T09:10:14;11.20;;;7.30;;
17091;SDS011;8661;45.700;4.880;2023-04-03T09:12:46;10.50;;;7.33;;
17091;SDS011;8661;45.700;4.880;2023-04-03T09:15:21;11.27;;;7.53;;
17091;SDS011;8661;45.700;4.880;2023-04-03T09:17:53;9.97;;;7.70;;
17091;SDS011;8661;45.700;4.880;2023-04-03T09:20:30;12.13;;;7.33;;
17091;SDS011;8661;45.700;4.880;2023-04-03T09:23:09;12.30;;;8.40;;
17091;SDS011;8661;45.700;4.880;2023-04-03T09:25:44;11.87;;;7.63;;
17091;SDS011;8661;45.700;4.880;2023-04-03T09:28:11;10.33;;;6.80;;
17091;SDS011;8661;45.700;4.880;2023-04-03T09:30:40;9.13;;;6.67;;
17091;SDS011;8661;45.700;4.880;2023-04-03T09:33:07;11.47;;;7.30;;
17091;SDS011;8661;45.700;4.880;2023-04-03T09:35:36;12.13;;;7.93;;
17091;SDS011;8661;45.700;4.880;2023-04-03T09:38:14;10.70;;;8.30;;
17091;SDS011;8661;45.700;4.880;2023-04-03T09:40:44;10.47;;;7.60;;
17091;SDS011;8661;45.700;4.880;2023-04-03T09:43:22;10.90;;;8.27;;
17091;SDS011;8661;45.700;4.880;2023-04-03T09:45:56;12.93;;;8.97;;
17091;SDS011;8661;45.700;4.880;2023-04-03T09:48:49;13.67;;;9.00;;
17091;SDS011;8661;45.700;4.880;2023-04-03T09:51:17;12.70;;;8.40;;
17091;SDS011;8661;45.700;4.880;2023-04-03T09:53:44;14.17;;;9.67;;
17091;SDS011;8661;45.700;4.880;2023-04-03T09:56:21;9.83;;;7.73;;
17091;SDS011;8661;45.700;4.880;2023-04-03T09:58:52;9.07;;;7.10;;
17091;SDS011;8661;45.700;4.880;2023-04-03T10:01:35;11.17;;;6.93;;
17091;SDS011;8661;45.700;4.880;2023-04-03T10:04:08;8.00;;;6.57;;
17091;SDS011;8661;45.700;4.880;2023-04-03T10:06:37;9.83;;;6.20;;
17091;SDS011;8661;45.700;4.880;2023-04-03T10:09:15;10.20;;;6.70;;
17091;SDS011;8661;45.700;4.880;2023-04-03T10:11:56;11.43;;;7.53;;
17091;SDS011;8661;45.700;4.880;2023-04-03T10:14:26;12.03;;;7.43;;
17091;SDS011;8661;45.700;4.880;2023-04-03T10:16:56;10.77;;;7.87;;
17091;SDS011;8661;45.700;4.880;2023-04-03T10:19:35;11.83;;;8.40;;
17091;SDS011;8661;45.700;4.880;2023-04-03T10:22:10;11.77;;;8.07;;
17091;SDS011;8661;45.700;4.880;2023-04-03T10:24:44;10.90;;;8.20;;
17091;SDS011;8661;45.700;4.880;2023-04-03T10:27:18;11.97;;;9.03;;
17091;SDS011;8661;45.700;4.880;2023-04-03T10:29:55;10.80;;;7.70;;
17091;SDS011;8661;45.700;4.880;2023-04-03T10:32:39;11.17;;;7.50;;
17091;SDS011;8661;45.700;4.880;2023-04-03T10:35:16;8.67;;;7.17;;
17091;SDS011;8661;45.700;4.880;2023-04-03T10:37:54;7.57;;;6.57;;
17091;SDS011;8661;45.700;4.880;2023-04-03T10:40:31;7.30;;;6.27;;
17091;SDS011;8661;45.700;4.880;2023-04-03T10:43:04;8.67;;;6.57;;
17091;SDS011;8661;45.700;4.880;2023-04-03T10:45:44;7.30;;;6.47;;
17091;SDS011;8661;45.700;4.880;2023-04-03T10:48:23;7.23;;;6.17;;
17091;SDS011;8661;45.700;4.880;2023-04-03T10:51:02;9.57;;;6.17;;
17091;SDS011;8661;45.700;4.880;2023-04-03T10:53:42;10.90;;;6.30;;
17091;SDS011;8661;45.700;4.880;2023-04-03T10:56:18;10.90;;;7.33;;
17091;SDS011;8661;45.700;4.880;2023-04-03T10:58:52;10.23;;;7.03;;
17091;SDS011;8661;45.700;4.880;2023-04-03T11:01:24;7.23;;;6.07;;
17091;SDS011;8661;45.700;4.880;2023-04-03T11:03:58;10.67;;;7.00;;
17091;SDS011;8661;45.700;4.880;2023-04-03T11:06:30;8.83;;;6.63;;
17091;SDS011;8661;45.700;4.880;2023-04-03T11:09:02;8.97;;;5.80;;
17091;SDS011;8661;45.700;4.880;2023-04-03T11:11:34;6.97;;;5.90;;
17091;SDS011;8661;45.700;4.880;2023-04-03T11:14:05;8.50;;;6.67;;
17091;SDS011;8661;45.700;4.880;2023-04-03T11:16:42;8.00;;;6.03;;
17091;SDS011;8661;45.700;4.880;2023-04-03T11:19:16;7.17;;;5.80;;
17091;SDS011;8661;45.700;4.880;2023-04-03T11:21:50;11.73;;;6.37;;
17091;SDS011;8661;45.700;4.880;2023-04-03T11:24:22;7.50;;;6.30;;
17091;SDS011;8661;45.700;4.880;2023-04-03T11:26:51;8.00;;;5.80;;
17091;SDS011;8661;45.700;4.880;2023-04-03T11:29:21;6.23;;;5.30;;
17091;SDS011;8661;45.700;4.880;2023-04-03T11:32:00;5.93;;;5.00;;
17091;SDS011;8661;45.700;4.880;2023-04-03T11:34:40;6.67;;;4.90;;
17091;SDS011;8661;45.700;4.880;2023-04-03T11:37:12;8.47;;;5.33;;
17091;SDS011;8661;45.700;4.880;2023-04-03T11:39:47;5.93;;;4.80;;
17091;SDS011;8661;45.700;4.880;2023-04-03T11:42:23;5.60;;;5.00;;
17091;SDS011;8661;45.700;4.880;2023-04-03T11:45:16;7.60;;;5.03;;
17091;SDS011;8661;45.700;4.880;2023-04-03T11:47:51;7.07;;;5.37;;
17091;SDS011;8661;45.700;4.880;2023-04-03T11:56:26;5.90;;;4.37;;
17091;SDS011;8661;45.700;4.880;2023-04-03T11:59:15;5.70;;;4.67;;
17091;SDS011;8661;45.700;4.880;2023-04-03T12:01:48;6.60;;;5.47;;
17091;SDS011;8661;45.700;4.880;2023-04-03T12:04:23;5.40;;;4.37;;
17091;SDS011;8661;45.700;4.880;2023-04-03T12:06:58;5.80;;;4.50;;
17091;SDS011;8661;45.700;4.880;2023-04-03T12:09:35;6.50;;;4.50;;
17091;SDS011;8661;45.700;4.880;2023-04-03T12:12:30;4.40;;;4.00;;
17091;SDS011;8661;45.700;4.880;2023-04-03T12:15:22;5.43;;;3.90;;
17091;SDS011;8661;45.700;4.880;2023-04-03T12:17:52;5.83;;;4.43;;
17091;SDS011;8661;45.700;4.880;2023-04-03T12:23:27;6.37;;;4.50;;
17091;SDS011;8661;45.700;4.880;2023-04-03T12:26:00;10.40;;;5.00;;
17091;SDS011;8661;45.700;4.880;2023-04-03T12:28:41;9.40;;;4.67;;
17091;SDS011;8661;45.700;4.880;2023-04-03T12:31:09;11.77;;;5.33;;
17091;SDS011;8661;45.700;4.880;2023-04-03T12:33:38;5.70;;;4.80;;
17091;SDS011;8661;45.700;4.880;2023-04-03T12:36:26;7.07;;;4.43;;
17091;SDS011;8661;45.700;4.880;2023-04-03T12:39:03;6.60;;;4.17;;
17091;SDS011;8661;45.700;4.880;2023-04-03T12:41:38;5.10;;;4.17;;
17091;SDS011;8661;45.700;4.880;2023-04-03T12:44:17;7.63;;;3.93;;
17091;SDS011;8661;45.700;4.880;2023-04-03T12:46:53;6.83;;;4.80;;
17091;SDS011;8661;45.700;4.880;2023-04-03T12:49:30;8.50;;;4.57;;
17091;SDS011;8661;45.700;4.880;2023-04-03T12:52:03;7.13;;;4.67;;
17091;SDS011;8661;45.700;4.880;2023-04-03T12:54:34;4.77;;;4.27;;
17091;SDS011;8661;45.700;4.880;2023-04-03T12:57:09;10.37;;;4.63;;
17091;SDS011;8661;45.700;4.880;2023-04-03T12:59:37;5.50;;;4.20;;
17091;SDS011;8661;45.700;4.880;2023-04-03T13:02:07;6.57;;;4.17;;
17091;SDS011;8661;45.700;4.880;2023-04-03T13:04:44;6.23;;;3.80;;
17091;SDS011;8661;45.700;4.880;2023-04-03T13:07:18;5.33;;;4.10;;
17091;SDS011;8661;45.700;4.880;2023-04-03T13:09:59;8.93;;;4.40;;
17091;SDS011;8661;45.700;4.880;2023-04-03T13:12:45;5.37;;;3.87;;
17091;SDS011;8661;45.700;4.880;2023-04-03T13:15:14;10.90;;;4.90;;
17091;SDS011;8661;45.700;4.880;2023-04-03T13:17:44;4.33;;;3.93;;
17091;SDS011;8661;45.700;4.880;2023-04-03T13:20:14;4.57;;;4.03;;
17091;SDS011;8661;45.700;4.880;2023-04-03T13:22:47;5.70;;;4.23;;
17091;SDS011;8661;45.700;4.880;2023-04-03T13:25:18;4.20;;;3.40;;
17091;SDS011;8661;45.700;4.880;2023-04-03T13:27:47;6.67;;;3.43;;
17091;SDS011;8661;45.700;4.880;2023-04-03T13:30:22;4.37;;;3.60;;
17091;SDS011;8661;45.700;4.880;2023-04-03T13:32:54;4.77;;;3.40;;
17091;SDS011;8661;45.700;4.880;2023-04-03T13:38:21;5.57;;;4.07;;
17091;SDS011;8661;45.700;4.880;2023-04-03T13:40:52;8.70;;;3.60;;
17091;SDS011;8661;45.700;4.880;2023-04-03T13:43:21;3.90;;;3.40;;
17091;SDS011;8661;45.700;4.880;2023-04-03T13:45:54;5.50;;;3.20;;
17091;SDS011;8661;45.700;4.880;2023-04-03T13:48:26;3.93;;;3.40;;
17091;SDS011;8661;45.700;4.880;2023-04-03T13:51:01;7.63;;;3.53;;
17091;SDS011;8661;45.700;4.880;2023-04-03T13:53:31;8.87;;;4.40;;
17091;SDS011;8661;45.700;4.880;2023-04-03T13:56:04;4.67;;;3.60;;
17091;SDS011;8661;45.700;4.880;2023-04-03T13:58:33;4.87;;;3.20;;
17091;SDS011;8661;45.700;4.880;2023-04-03T14:01:06;7.40;;;3.37;;
17091;SDS011;8661;45.700;4.880;2023-04-03T14:03:39;6.40;;;3.37;;
17091;SDS011;8661;45.700;4.880;2023-04-03T14:06:10;6.53;;;3.30;;
17091;SDS011;8661;45.700;4.880;2023-04-03T14:08:40;4.17;;;3.20;;
17091;SDS011;8661;45.700;4.880;2023-04-03T14:11:10;4.33;;;3.33;;
17091;SDS011;8661;45.700;4.880;2023-04-03T14:13:40;17.40;;;4.37;;
17091;SDS011;8661;45.700;4.880;2023-04-03T14:16:07;6.90;;;3.27;;
17091;SDS011;8661;45.700;4.880;2023-04-03T14:18:38;8.70;;;3.90;;
17091;SDS011;8661;45.700;4.880;2023-04-03T14:21:05;5.50;;;3.20;;
17091;SDS011;8661;45.700;4.880;2023-04-03T14:23:31;6.13;;;3.10;;
17091;SDS011;8661;45.700;4.880;2023-04-03T14:25:59;4.43;;;3.10;;
17091;SDS011;8661;45.700;4.880;2023-04-03T14:28:28;4.43;;;3.20;;
17091;SDS011;8661;45.700;4.880;2023-04-03T14:30:56;3.90;;;3.17;;
17091;SDS011;8661;45.700;4.880;2023-04-03T14:33:23;5.97;;;3.67;;
17091;SDS011;8661;45.700;4.880;2023-04-03T14:35:52;3.77;;;2.70;;
17091;SDS011;8661;45.700;4.880;2023-04-03T14:38:23;3.53;;;2.90;;
17091;SDS011;8661;45.700;4.880;2023-04-03T14:40:52;4.67;;;3.20;;
17091;SDS011;8661;45.700;4.880;2023-04-03T14:43:21;3.47;;;2.97;;
17091;SDS011;8661;45.700;4.880;2023-04-03T14:45:50;7.63;;;2.90;;
17091;SDS011;8661;45.700;4.880;2023-04-03T14:48:18;5.70;;;3.00;;
17091;SDS011;8661;45.700;4.880;2023-04-03T14:50:47;4.20;;;2.70;;
17091;SDS011;8661;45.700;4.880;2023-04-03T14:53:17;4.30;;;2.83;;
17091;SDS011;8661;45.700;4.880;2023-04-03T14:55:52;8.60;;;3.07;;
17091;SDS011;8661;45.700;4.880;2023-04-03T14:58:20;3.37;;;3.07;;
17091;SDS011;8661;45.700;4.880;2023-04-03T15:00:47;4.00;;;2.83;;
17091;SDS011;8661;45.700;4.880;2023-04-03T15:03:20;9.83;;;3.33;;
17091;SDS011;8661;45.700;4.880;2023-04-03T15:05:48;2.87;;;2.60;;
17091;SDS011;8661;45.700;4.880;2023-04-03T15:08:19;3.07;;;2.60;;
17091;SDS011;8661;45.700;4.880;2023-04-03T15:10:49;3.57;;;2.77;;
17091;SDS011;8661;45.700;4.880;2023-04-03T15:13:17;3.77;;;2.73;;
17091;SDS011;8661;45.700;4.880;2023-04-03T15:15:45;2.93;;;2.60;;
17091;SDS011;8661;45.700;4.880;2023-04-03T15:18:18;5.83;;;2.87;;
17091;SDS011;8661;45.700;4.880;2023-04-03T15:20:48;4.17;;;3.20;;
17091;SDS011;8661;45.700;4.880;2023-04-03T15:23:18;4.23;;;2.90;;
17091;SDS011;8661;45.700;4.880;2023-04-03T15:25:51;3.17;;;2.70;;
17091;SDS011;8661;45.700;4.880;2023-04-03T15:28:29;3.23;;;2.30;;
17091;SDS011;8661;45.700;4.880;2023-04-03T15:30:58;4.40;;;2.90;;
17091;SDS011;8661;45.700;4.880;2023-04-03T15:33:27;3.27;;;2.83;;